sensor_id;sensor_type;location;lat;lon;timestamp;P1;durP1;ratioP1;P2;durP2;ratioP2
53666;SDS011;39568;51.026;5.468;2023-04-22T00:01:20;29.30;;;15.32;;
53666;SDS011;39568;51.026;5.468;2023-04-22T00:03:49;19.45;;;13.30;;
53666;SDS011;39568;51.026;5.468;2023-04-22T00:06:17;19.33;;;11.15;;
53666;SDS011;39568;51.026;5.468;2023-04-22T00:08:43;18.88;;;12.55;;
53666;SDS011;39568;51.026;5.468;2023-04-22T00:11:10;18.95;;;11.73;;
53666;SDS011;39568;51.026;5.468;2023-04-22T00:13:37;14.23;;;11.45;;
53666;SDS011;39568;51.026;5.468;2023-04-22T00:16:04;17.33;;;12.57;;
53666;SDS011;39568;51.026;5.468;2023-04-22T00:18:32;16.63;;;10.82;;
53666;SDS011;39568;51.026;5.468;2023-04-22T00:21:01;14.15;;;10.95;;
53666;SDS011;39568;51.026;5.468;2023-04-22T00:23:27;18.52;;;11.07;;
53666;SDS011;39568;51.026;5.468;2023-04-22T00:25:55;13.32;;;10.77;;
53666;SDS011;39568;51.026;5.468;2023-04-22T00:28:23;16.77;;;11.07;;
53666;SDS011;39568;51.026;5.468;2023-04-22T00:30:51;14.95;;;10.23;;
53666;SDS011;39568;51.026;5.468;2023-04-22T00:33:18;16.73;;;10.45;;
53666;SDS011;39568;51.026;5.468;2023-04-22T00:35:49;18.88;;;10.73;;
53666;SDS011;39568;51.026;5.468;2023-04-22T00:38:20;17.50;;;11.23;;
53666;SDS011;39568;51.026;5.468;2023-04-22T00:40:47;16.80;;;10.00;;
53666;SDS011;39568;51.026;5.468;2023-04-22T00:43:13;12.40;;;10.10;;
53666;SDS011;39568;51.026;5.468;2023-04-22T00:45:41;19.85;;;11.25;;
53666;SDS011;39568;51.026;5.468;2023-04-22T00:48:08;12.68;;;9.93;;
53666;SDS011;39568;51.026;5.468;2023-04-22T00:50:35;18.63;;;11.00;;
53666;SDS011;39568;51.026;5.468;2023-04-22T00:53:02;14.38;;;10.50;;
53666;SDS011;39568;51.026;5.468;2023-04-22T00:55:30;19.50;;;10.30;;
53666;SDS011;39568;51.026;5.468;2023-04-22T00:57:57;14.77;;;9.73;;
53666;SDS011;39568;51.026;5.468;2023-04-22T01:00:26;18.05;;;10.70;;
53666;SDS011;39568;51.026;5.468;2023-04-22T01:02:54;16.05;;;10.15;;
53666;SDS011;39568;51.026;5.468;2023-04-22T01:05:22;11.43;;;10.23;;
53666;SDS011;39568;51.026;5.468;2023-04-22T01:07:49;19.67;;;11.20;;
53666;SDS011;39568;51.026;5.468;2023-04-22T01:10:16;14.57;;;10.75;;
53666;SDS011;39568;51.026;5.468;2023-04-22T01:12:45;13.52;;;10.63;;
53666;SDS011;39568;51.026;5.468;2023-04-22T01:15:11;17.40;;;12.02;;
53666;SDS011;39568;51.026;5.468;2023-04-22T01:17:38;13.55;;;11.02;;
53666;SDS011;39568;51.026;5.468;2023-04-22T01:20:05;17.25;;;11.38;;
53666;SDS011;39568;51.026;5.468;2023-04-22T01:22:35;13.07;;;10.27;;
53666;SDS011;39568;51.026;5.468;2023-04-22T01:25:08;12.30;;;10.27;;
53666;SDS011;39568;51.026;5.468;2023-04-22T01:27:35;13.50;;;9.48;;
53666;SDS011;39568;51.026;5.468;2023-04-22T01:30:07;12.32;;;10.00;;
53666;SDS011;39568;51.026;5.468;2023-04-22T01:32:35;12.95;;;10.13;;
53666;SDS011;39568;51.026;5.468;2023-04-22T01:35:16;17.20;;;11.60;;
53666;SDS011;39568;51.026;5.468;2023-04-22T01:37:42;13.38;;;9.93;;
53666;SDS011;39568;51.026;5.468;2023-04-22T01:40:11;12.70;;;10.77;;
53666;SDS011;39568;51.026;5.468;2023-04-22T01:42:39;17.48;;;11.05;;
53666;SDS011;39568;51.026;5.468;2023-04-22T01:45:06;11.88;;;10.68;;
53666;SDS011;39568;51.026;5.468;2023-04-22T01:47:33;15.13;;;11.13;;
53666;SDS011;39568;51.026;5.468;2023-04-22T01:50:00;16.75;;;10.20;;
53666;SDS011;39568;51.026;5.468;2023-04-22T01:52:26;15.45;;;11.40;;
53666;SDS011;39568;51.026;5.468;2023-04-22T01:54:53;11.35;;;9.98;;
53666;SDS011;39568;51.026;5.468;2023-04-22T01:57:21;18.23;;;11.48;;
53666;SDS011;39568;51.026;5.468;2023-04-22T01:59:50;12.52;;;9.63;;
53666;SDS011;39568;51.026;5.468;2023-04-22T02:02:18;12.15;;;10.55;;
53666;SDS011;39568;51.026;5.468;2023-04-22T02:04:44;12.10;;;10.20;;
53666;SDS011;39568;51.026;5.468;2023-04-22T02:07:11;13.60;;;9.70;;
53666;SDS011;39568;51.026;5.468;2023-04-22T02:09:38;11.98;;;10.38;;
53666;SDS011;39568;51.026;5.468;2023-04-22T02:12:04;14.27;;;9.98;;
53666;SDS011;39568;51.026;5.468;2023-04-22T02:14:36;12.18;;;10.52;;
53666;SDS011;39568;51.026;5.468;2023-04-22T02:17:03;13.15;;;10.77;;
53666;SDS011;39568;51.026;5.468;2023-04-22T02:19:31;12.93;;;9.82;;
53666;SDS011;39568;51.026;5.468;2023-04-22T02:21:57;12.65;;;10.50;;
53666;SDS011;39568;51.026;5.468;2023-04-22T02:24:24;12.45;;;10.70;;
53666;SDS011;39568;51.026;5.468;2023-04-22T02:26:54;18.25;;;11.95;;
53666;SDS011;39568;51.026;5.468;2023-04-22T02:29:23;18.75;;;10.65;;
53666;SDS011;39568;51.026;5.468;2023-04-22T02:31:51;14.48;;;11.50;;
53666;SDS011;39568;51.026;5.468;2023-04-22T02:34:18;14.93;;;10.85;;
53666;SDS011;39568;51.026;5.468;2023-04-22T02:36:44;15.02;;;11.23;;
53666;SDS011;39568;51.026;5.468;2023-04-22T02:39:11;18.83;;;10.05;;
53666;SDS011;39568;51.026;5.468;2023-04-22T02:41:39;13.60;;;10.70;;
53666;SDS011;39568;51.026;5.468;2023-04-22T02:44:10;12.68;;;10.35;;
53666;SDS011;39568;51.026;5.468;2023-04-22T02:46:37;14.88;;;10.73;;
53666;SDS011;39568;51.026;5.468;2023-04-22T02:49:08;13.75;;;10.75;;
53666;SDS011;39568;51.026;5.468;2023-04-22T02:51:36;13.40;;;11.43;;
53666;SDS011;39568;51.026;5.468;2023-04-22T02:54:03;26.58;;;10.93;;
53666;SDS011;39568;51.026;5.468;2023-04-22T02:56:30;18.90;;;11.68;;
53666;SDS011;39568;51.026;5.468;2023-04-22T02:58:57;16.30;;;11.85;;
53666;SDS011;39568;51.026;5.468;2023-04-22T03:01:24;16.48;;;12.95;;
53666;SDS011;39568;51.026;5.468;2023-04-22T03:03:51;14.82;;;9.95;;
53666;SDS011;39568;51.026;5.468;2023-04-22T03:06:19;20.10;;;11.52;;
53666;SDS011;39568;51.026;5.468;2023-04-22T03:08:46;15.15;;;11.32;;
53666;SDS011;39568;51.026;5.468;2023-04-22T03:11:13;13.88;;;10.77;;
53666;SDS011;39568;51.026;5.468;2023-04-22T03:13:40;18.65;;;10.75;;
53666;SDS011;39568;51.026;5.468;2023-04-22T03:16:07;17.80;;;11.40;;
53666;SDS011;39568;51.026;5.468;2023-04-22T03:18:34;17.17;;;12.27;;
53666;SDS011;39568;51.026;5.468;2023-04-22T03:21:01;17.80;;;12.77;;
53666;SDS011;39568;51.026;5.468;2023-04-22T03:23:29;14.80;;;12.15;;
53666;SDS011;39568;51.026;5.468;2023-04-22T03:25:56;22.60;;;12.18;;
53666;SDS011;39568;51.026;5.468;2023-04-22T03:28:22;18.38;;;13.13;;
53666;SDS011;39568;51.026;5.468;2023-04-22T03:30:49;24.05;;;12.80;;
53666;SDS011;39568;51.026;5.468;2023-04-22T03:33:16;15.27;;;12.35;;
53666;SDS011;39568;51.026;5.468;2023-04-22T03:35:43;16.20;;;12.43;;
53666;SDS011;39568;51.026;5.468;2023-04-22T03:38:12;17.77;;;12.32;;
53666;SDS011;39568;51.026;5.468;2023-04-22T03:40:50;13.57;;;11.02;;
53666;SDS011;39568;51.026;5.468;2023-04-22T03:43:16;16.15;;;11.95;;
53666;SDS011;39568;51.026;5.468;2023-04-22T03:45:43;20.25;;;13.10;;
53666;SDS011;39568;51.026;5.468;2023-04-22T03:48:10;16.30;;;11.73;;
53666;SDS011;39568;51.026;5.468;2023-04-22T03:50:37;14.90;;;11.05;;
53666;SDS011;39568;51.026;5.468;2023-04-22T03:53:05;17.77;;;11.63;;
53666;SDS011;39568;51.026;5.468;2023-04-22T03:55:39;12.13;;;10.50;;
53666;SDS011;39568;51.026;5.468;2023-04-22T03:58:07;18.73;;;13.15;;
53666;SDS011;39568;51.026;5.468;2023-04-22T04:00:36;17.73;;;13.43;;
53666;SDS011;39568;51.026;5.468;2023-04-22T04:03:03;18.85;;;12.38;;
53666;SDS011;39568;51.026;5.468;2023-04-22T04:05:31;17.17;;;12.60;;
53666;SDS011;39568;51.026;5.468;2023-04-22T04:07:58;19.25;;;12.25;;
53666;SDS011;39568;51.026;5.468;2023-04-22T04:10:31;20.33;;;12.98;;
53666;SDS011;39568;51.026;5.468;2023-04-22T04:12:57;14.82;;;11.27;;
53666;SDS011;39568;51.026;5.468;2023-04-22T04:15:25;23.33;;;13.02;;
53666;SDS011;39568;51.026;5.468;2023-04-22T04:17:52;19.92;;;12.50;;
53666;SDS011;39568;51.026;5.468;2023-04-22T04:20:25;24.25;;;13.18;;
53666;SDS011;39568;51.026;5.468;2023-04-22T04:22:52;15.00;;;11.70;;
53666;SDS011;39568;51.026;5.468;2023-04-22T04:25:18;15.10;;;12.02;;
53666;SDS011;39568;51.026;5.468;2023-04-22T04:27:46;17.33;;;12.43;;
53666;SDS011;39568;51.026;5.468;2023-04-22T04:30:14;14.63;;;12.20;;
53666;SDS011;39568;51.026;5.468;2023-04-22T04:32:46;16.88;;;12.25;;
53666;SDS011;39568;51.026;5.468;2023-04-22T04:35:19;19.40;;;13.15;;
53666;SDS011;39568;51.026;5.468;2023-04-22T04:37:45;14.00;;;11.63;;
53666;SDS011;39568;51.026;5.468;2023-04-22T04:40:12;22.52;;;12.65;;
53666;SDS011;39568;51.026;5.468;2023-04-22T04:42:41;16.58;;;12.32;;
53666;SDS011;39568;51.026;5.468;2023-04-22T04:45:08;16.90;;;12.13;;
53666;SDS011;39568;51.026;5.468;2023-04-22T04:47:35;16.00;;;11.88;;
53666;SDS011;39568;51.026;5.468;2023-04-22T04:50:11;18.15;;;11.88;;
53666;SDS011;39568;51.026;5.468;2023-04-22T04:52:39;21.15;;;13.20;;
53666;SDS011;39568;51.026;5.468;2023-04-22T04:55:06;22.63;;;13.20;;
53666;SDS011;39568;51.026;5.468;2023-04-22T04:57:36;20.50;;;13.63;;
53666;SDS011;39568;51.026;5.468;2023-04-22T05:00:03;23.17;;;13.50;;
53666;SDS011;39568;51.026;5.468;2023-04-22T05:02:32;25.40;;;13.75;;
53666;SDS011;39568;51.026;5.468;2023-04-22T05:05:00;14.50;;;12.52;;
53666;SDS011;39568;51.026;5.468;2023-04-22T05:07:28;18.98;;;12.82;;
53666;SDS011;39568;51.026;5.468;2023-04-22T05:09:58;14.38;;;11.27;;
53666;SDS011;39568;51.026;5.468;2023-04-22T05:12:25;18.38;;;12.40;;
53666;SDS011;39568;51.026;5.468;2023-04-22T05:14:52;15.48;;;11.55;;
53666;SDS011;39568;51.026;5.468;2023-04-22T05:17:19;14.13;;;10.88;;
53666;SDS011;39568;51.026;5.468;2023-04-22T05:19:46;25.25;;;11.45;;
53666;SDS011;39568;51.026;5.468;2023-04-22T05:24:46;18.13;;;11.50;;
53666;SDS011;39568;51.026;5.468;2023-04-22T05:27:31;14.23;;;10.77;;
53666;SDS011;39568;51.026;5.468;2023-04-22T05:29:58;11.38;;;10.18;;
53666;SDS011;39568;51.026;5.468;2023-04-22T05:32:24;15.85;;;12.32;;
53666;SDS011;39568;51.026;5.468;2023-04-22T05:34:51;17.65;;;12.68;;
53666;SDS011;39568;51.026;5.468;2023-04-22T05:37:18;15.98;;;12.82;;
53666;SDS011;39568;51.026;5.468;2023-04-22T05:39:46;22.30;;;12.63;;
53666;SDS011;39568;51.026;5.468;2023-04-22T05:42:13;15.35;;;12.15;;
53666;SDS011;39568;51.026;5.468;2023-04-22T05:44:43;37.28;;;13.10;;
53666;SDS011;39568;51.026;5.468;2023-04-22T05:47:10;18.13;;;14.35;;
53666;SDS011;39568;51.026;5.468;2023-04-22T05:49:37;20.40;;;13.90;;
53666;SDS011;39568;51.026;5.468;2023-04-22T05:52:07;19.90;;;14.32;;
53666;SDS011;39568;51.026;5.468;2023-04-22T05:54:36;20.65;;;13.18;;
53666;SDS011;39568;51.026;5.468;2023-04-22T05:57:04;19.63;;;12.77;;
53666;SDS011;39568;51.026;5.468;2023-04-22T05:59:31;22.45;;;16.20;;
53666;SDS011;39568;51.026;5.468;2023-04-22T06:02:00;20.70;;;14.70;;
53666;SDS011;39568;51.026;5.468;2023-04-22T06:04:28;16.80;;;12.48;;
53666;SDS011;39568;51.026;5.468;2023-04-22T06:07:01;14.73;;;10.77;;
53666;SDS011;39568;51.026;5.468;2023-04-22T06:09:28;12.98;;;11.13;;
53666;SDS011;39568;51.026;5.468;2023-04-22T06:11:55;13.43;;;11.30;;
53666;SDS011;39568;51.026;5.468;2023-04-22T06:14:23;15.85;;;10.80;;
53666;SDS011;39568;51.026;5.468;2023-04-22T06:16:52;17.10;;;10.70;;
53666;SDS011;39568;51.026;5.468;2023-04-22T06:19:19;16.95;;;11.48;;
53666;SDS011;39568;51.026;5.468;2023-04-22T06:21:45;14.52;;;10.55;;
53666;SDS011;39568;51.026;5.468;2023-04-22T06:24:12;15.88;;;11.55;;
53666;SDS011;39568;51.026;5.468;2023-04-22T06:26:41;12.43;;;10.73;;
53666;SDS011;39568;51.026;5.468;2023-04-22T06:29:10;14.85;;;11.43;;
53666;SDS011;39568;51.026;5.468;2023-04-22T06:31:41;13.48;;;11.40;;
53666;SDS011;39568;51.026;5.468;2023-04-22T06:34:08;18.08;;;11.30;;
53666;SDS011;39568;51.026;5.468;2023-04-22T06:36:35;11.40;;;9.55;;
53666;SDS011;39568;51.026;5.468;2023-04-22T06:39:02;11.15;;;9.43;;
53666;SDS011;39568;51.026;5.468;2023-04-22T06:41:29;17.27;;;10.60;;
53666;SDS011;39568;51.026;5.468;2023-04-22T06:43:57;11.52;;;10.15;;
53666;SDS011;39568;51.026;5.468;2023-04-22T06:46:23;16.52;;;10.95;;
53666;SDS011;39568;51.026;5.468;2023-04-22T06:48:52;13.30;;;11.57;;
53666;SDS011;39568;51.026;5.468;2023-04-22T06:51:20;11.55;;;10.23;;
53666;SDS011;39568;51.026;5.468;2023-04-22T06:53:49;12.43;;;10.88;;
53666;SDS011;39568;51.026;5.468;2023-04-22T06:56:15;10.98;;;9.88;;
53666;SDS011;39568;51.026;5.468;2023-04-22T06:58:42;15.38;;;10.80;;
53666;SDS011;39568;51.026;5.468;2023-04-22T07:01:09;13.35;;;10.25;;
53666;SDS011;39568;51.026;5.468;2023-04-22T07:03:36;12.52;;;9.35;;
53666;SDS011;39568;51.026;5.468;2023-04-22T07:06:04;8.93;;;7.93;;
53666;SDS011;39568;51.026;5.468;2023-04-22T07:08:31;8.45;;;7.63;;
53666;SDS011;39568;51.026;5.468;2023-04-22T07:10:59;12.63;;;9.15;;
53666;SDS011;39568;51.026;5.468;2023-04-22T07:13:25;20.98;;;10.50;;
53666;SDS011;39568;51.026;5.468;2023-04-22T07:15:53;10.88;;;8.52;;
53666;SDS011;39568;51.026;5.468;2023-04-22T07:18:20;12.43;;;9.60;;
53666;SDS011;39568;51.026;5.468;2023-04-22T07:20:47;12.50;;;8.70;;
53666;SDS011;39568;51.026;5.468;2023-04-22T07:23:16;11.73;;;9.20;;
53666;SDS011;39568;51.026;5.468;2023-04-22T07:25:43;13.15;;;8.52;;
53666;SDS011;39568;51.026;5.468;2023-04-22T07:28:10;7.68;;;6.97;;
53666;SDS011;39568;51.026;5.468;2023-04-22T07:30:42;7.38;;;6.47;;
53666;SDS011;39568;51.026;5.468;2023-04-22T07:33:12;9.48;;;6.70;;
53666;SDS011;39568;51.026;5.468;2023-04-22T07:35:43;7.15;;;6.47;;
53666;SDS011;39568;51.026;5.468;2023-04-22T07:38:09;12.90;;;7.05;;
53666;SDS011;39568;51.026;5.468;2023-04-22T07:40:37;9.82;;;6.18;;
53666;SDS011;39568;51.026;5.468;2023-04-22T07:43:06;11.15;;;6.75;;
53666;SDS011;39568;51.026;5.468;2023-04-22T07:45:32;11.45;;;7.60;;
53666;SDS011;39568;51.026;5.468;2023-04-22T07:47:59;7.85;;;4.43;;
53666;SDS011;39568;51.026;5.468;2023-04-22T07:50:26;5.95;;;4.80;;
53666;SDS011;39568;51.026;5.468;2023-04-22T07:52:52;4.85;;;4.43;;
53666;SDS011;39568;51.026;5.468;2023-04-22T07:55:20;3.88;;;3.65;;
53666;SDS011;39568;51.026;5.468;2023-04-22T07:57:48;4.75;;;3.65;;
53666;SDS011;39568;51.026;5.468;2023-04-22T08:00:15;3.78;;;3.47;;
53666;SDS011;39568;51.026;5.468;2023-04-22T08:02:42;3.38;;;3.13;;
53666;SDS011;39568;51.026;5.468;2023-04-22T08:05:10;12.13;;;7.15;;
53666;SDS011;39568;51.026;5.468;2023-04-22T08:07:37;6.60;;;3.60;;
53666;SDS011;39568;51.026;5.468;2023-04-22T08:10:04;7.90;;;3.92;;
53666;SDS011;39568;51.026;5.468;2023-04-22T08:12:32;4.90;;;3.47;;
53666;SDS011;39568;51.026;5.468;2023-04-22T08:15:04;3.28;;;2.95;;
53666;SDS011;39568;51.026;5.468;2023-04-22T08:17:32;4.28;;;3.80;;
53666;SDS011;39568;51.026;5.468;2023-04-22T08:19:58;5.28;;;4.00;;
53666;SDS011;39568;51.026;5.468;2023-04-22T08:22:25;6.45;;;4.18;;
53666;SDS011;39568;51.026;5.468;2023-04-22T08:24:52;7.45;;;4.53;;
53666;SDS011;39568;51.026;5.468;2023-04-22T08:27:20;4.57;;;4.15;;
53666;SDS011;39568;51.026;5.468;2023-04-22T08:29:47;4.15;;;3.70;;
53666;SDS011;39568;51.026;5.468;2023-04-22T08:32:16;7.60;;;3.50;;
53666;SDS011;39568;51.026;5.468;2023-04-22T08:34:44;4.55;;;4.13;;
53666;SDS011;39568;51.026;5.468;2023-04-22T08:37:10;5.55;;;4.25;;
53666;SDS011;39568;51.026;5.468;2023-04-22T08:39:38;6.53;;;3.58;;
53666;SDS011;39568;51.026;5.468;2023-04-22T08:42:05;4.07;;;3.75;;
53666;SDS011;39568;51.026;5.468;2023-04-22T08:44:36;5.73;;;3.00;;
53666;SDS011;39568;51.026;5.468;2023-04-22T08:47:04;5.05;;;4.10;;
53666;SDS011;39568;51.026;5.468;2023-04-22T08:49:35;5.78;;;4.35;;
53666;SDS011;39568;51.026;5.468;2023-04-22T08:52:06;7.82;;;4.57;;
53666;SDS011;39568;51.026;5.468;2023-04-22T08:54:33;11.85;;;4.60;;
53666;SDS011;39568;51.026;5.468;2023-04-22T08:57:01;3.80;;;3.47;;
53666;SDS011;39568;51.026;5.468;2023-04-22T08:59:30;7.10;;;4.30;;
53666;SDS011;39568;51.026;5.468;2023-04-22T09:01:56;4.20;;;3.85;;
53666;SDS011;39568;51.026;5.468;2023-04-22T09:04:25;4.38;;;3.97;;
53666;SDS011;39568;51.026;5.468;2023-04-22T09:06:53;4.78;;;4.38;;
53666;SDS011;39568;51.026;5.468;2023-04-22T09:09:29;8.68;;;4.10;;
53666;SDS011;39568;51.026;5.468;2023-04-22T09:11:57;5.10;;;3.72;;
53666;SDS011;39568;51.026;5.468;2023-04-22T09:14:24;3.97;;;2.78;;
53666;SDS011;39568;51.026;5.468;2023-04-22T09:16:51;10.40;;;3.55;;
53666;SDS011;39568;51.026;5.468;2023-04-22T09:19:22;9.40;;;4.85;;
53666;SDS011;39568;51.026;5.468;2023-04-22T09:21:50;9.02;;;4.88;;
53666;SDS011;39568;51.026;5.468;2023-04-22T09:24:18;4.03;;;3.70;;
53666;SDS011;39568;51.026;5.468;2023-04-22T09:26:55;4.43;;;3.90;;
53666;SDS011;39568;51.026;5.468;2023-04-22T09:29:28;3.30;;;3.03;;
53666;SDS011;39568;51.026;5.468;2023-04-22T09:31:55;5.90;;;2.70;;
53666;SDS011;39568;51.026;5.468;2023-04-22T09:34:22;2.80;;;2.70;;
53666;SDS011;39568;51.026;5.468;2023-04-22T09:36:49;6.43;;;3.05;;
53666;SDS011;39568;51.026;5.468;2023-04-22T09:39:16;13.70;;;2.88;;
53666;SDS011;39568;51.026;5.468;2023-04-22T09:41:44;5.97;;;3.10;;
53666;SDS011;39568;51.026;5.468;2023-04-22T09:44:20;3.13;;;2.80;;
53666;SDS011;39568;51.026;5.468;2023-04-22T09:46:49;3.83;;;2.70;;
53666;SDS011;39568;51.026;5.468;2023-04-22T09:49:16;5.13;;;3.58;;
53666;SDS011;39568;51.026;5.468;2023-04-22T09:51:43;3.60;;;2.97;;
53666;SDS011;39568;51.026;5.468;2023-04-22T09:54:10;3.15;;;2.95;;
53666;SDS011;39568;51.026;5.468;2023-04-22T09:56:46;8.05;;;2.80;;
53666;SDS011;39568;51.026;5.468;2023-04-22T09:59:20;2.78;;;2.50;;
53666;SDS011;39568;51.026;5.468;2023-04-22T10:01:50;2.67;;;2.47;;
53666;SDS011;39568;51.026;5.468;2023-04-22T10:04:21;3.17;;;2.90;;
53666;SDS011;39568;51.026;5.468;2023-04-22T10:06:50;2.88;;;2.63;;
53666;SDS011;39568;51.026;5.468;2023-04-22T10:09:19;4.80;;;3.05;;
53666;SDS011;39568;51.026;5.468;2023-04-22T10:11:49;3.10;;;2.80;;
53666;SDS011;39568;51.026;5.468;2023-04-22T10:14:17;4.90;;;2.88;;
53666;SDS011;39568;51.026;5.468;2023-04-22T10:16:48;3.25;;;3.00;;
53666;SDS011;39568;51.026;5.468;2023-04-22T10:19:19;5.50;;;2.80;;
53666;SDS011;39568;51.026;5.468;2023-04-22T10:21:48;4.40;;;2.53;;
53666;SDS011;39568;51.026;5.468;2023-04-22T10:24:18;4.90;;;2.80;;
53666;SDS011;39568;51.026;5.468;2023-04-22T10:26:51;4.18;;;2.80;;
53666;SDS011;39568;51.026;5.468;2023-04-22T10:29:21;3.85;;;3.20;;
53666;SDS011;39568;51.026;5.468;2023-04-22T10:31:52;5.18;;;3.33;;
53666;SDS011;39568;51.026;5.468;2023-04-22T10:34:29;3.28;;;3.08;;
53666;SDS011;39568;51.026;5.468;2023-04-22T10:36:58;9.82;;;2.63;;
53666;SDS011;39568;51.026;5.468;2023-04-22T10:39:27;3.50;;;2.28;;
53666;SDS011;39568;51.026;5.468;2023-04-22T10:41:57;3.45;;;3.00;;
53666;SDS011;39568;51.026;5.468;2023-04-22T10:44:44;7.22;;;2.47;;
53666;SDS011;39568;51.026;5.468;2023-04-22T10:47:24;5.75;;;2.65;;
53666;SDS011;39568;51.026;5.468;2023-04-22T10:52:34;2.92;;;2.42;;
53666;SDS011;39568;51.026;5.468;2023-04-22T10:55:01;5.65;;;2.13;;
53666;SDS011;39568;51.026;5.468;2023-04-22T10:57:30;7.05;;;3.30;;
53666;SDS011;39568;51.026;5.468;2023-04-22T11:00:14;4.13;;;2.97;;
53666;SDS011;39568;51.026;5.468;2023-04-22T11:02:50;2.65;;;2.47;;
53666;SDS011;39568;51.026;5.468;2023-04-22T11:05:17;7.07;;;2.90;;
53666;SDS011;39568;51.026;5.468;2023-04-22T11:07:46;4.05;;;2.97;;
53666;SDS011;39568;51.026;5.468;2023-04-22T11:13:00;4.30;;;2.70;;
53666;SDS011;39568;51.026;5.468;2023-04-22T11:15:28;2.70;;;2.40;;
53666;SDS011;39568;51.026;5.468;2023-04-22T11:18:09;2.40;;;2.17;;
53666;SDS011;39568;51.026;5.468;2023-04-22T11:20:38;3.10;;;2.75;;
53666;SDS011;39568;51.026;5.468;2023-04-22T11:23:05;7.25;;;3.47;;
53666;SDS011;39568;51.026;5.468;2023-04-22T11:25:31;4.95;;;3.00;;
53666;SDS011;39568;51.026;5.468;2023-04-22T11:28:03;2.63;;;2.40;;
53666;SDS011;39568;51.026;5.468;2023-04-22T11:30:30;6.85;;;2.60;;
53666;SDS011;39568;51.026;5.468;2023-04-22T11:32:58;4.97;;;2.75;;
53666;SDS011;39568;51.026;5.468;2023-04-22T11:35:29;3.13;;;2.83;;
53666;SDS011;39568;51.026;5.468;2023-04-22T11:37:58;3.70;;;2.55;;
53666;SDS011;39568;51.026;5.468;2023-04-22T11:40:27;4.15;;;2.35;;
53666;SDS011;39568;51.026;5.468;2023-04-22T11:42:55;4.05;;;2.95;;
53666;SDS011;39568;51.026;5.468;2023-04-22T11:45:23;2.95;;;2.30;;
53666;SDS011;39568;51.026;5.468;2023-04-22T11:47:50;3.92;;;2.50;;
53666;SDS011;39568;51.026;5.468;2023-04-22T11:50:21;10.23;;;2.78;;
53666;SDS011;39568;51.026;5.468;2023-04-22T11:52:49;3.00;;;2.65;;
53666;SDS011;39568;51.026;5.468;2023-04-22T11:55:21;3.25;;;2.65;;
53666;SDS011;39568;51.026;5.468;2023-04-22T11:57:52;4.10;;;1.85;;
53666;SDS011;39568;51.026;5.468;2023-04-22T12:00:20;3.15;;;2.20;;
53666;SDS011;39568;51.026;5.468;2023-04-22T12:02:58;2.67;;;1.77;;
53666;SDS011;39568;51.026;5.468;2023-04-22T12:05:32;4.57;;;1.90;;
53666;SDS011;39568;51.026;5.468;2023-04-22T12:08:04;38.88;;;15.63;;
53666;SDS011;39568;51.026;5.468;2023-04-22T12:10:38;20.27;;;8.38;;
53666;SDS011;39568;51.026;5.468;2023-04-22T12:13:06;36.10;;;17.90;;
53666;SDS011;39568;51.026;5.468;2023-04-22T12:15:36;25.23;;;11.85;;
53666;SDS011;39568;51.026;5.468;2023-04-22T12:18:07;20.58;;;11.43;;
53666;SDS011;39568;51.026;5.468;2023-04-22T12:20:34;35.55;;;19.50;;
53666;SDS011;39568;51.026;5.468;2023-04-22T12:23:02;30.65;;;8.13;;
53666;SDS011;39568;51.026;5.468;2023-04-22T12:25:29;10.50;;;5.45;;
53666;SDS011;39568;51.026;5.468;2023-04-22T12:27:57;42.65;;;27.92;;
53666;SDS011;39568;51.026;5.468;2023-04-22T12:30:24;7.65;;;4.18;;
53666;SDS011;39568;51.026;5.468;2023-04-22T12:32:54;2.78;;;1.90;;
53666;SDS011;39568;51.026;5.468;2023-04-22T12:35:22;6.25;;;2.30;;
53666;SDS011;39568;51.026;5.468;2023-04-22T12:37:51;3.30;;;2.80;;
53666;SDS011;39568;51.026;5.468;2023-04-22T12:40:22;5.63;;;3.25;;
53666;SDS011;39568;51.026;5.468;2023-04-22T12:42:49;5.60;;;2.85;;
53666;SDS011;39568;51.026;5.468;2023-04-22T12:45:21;2.20;;;2.08;;
53666;SDS011;39568;51.026;5.468;2023-04-22T12:47:49;2.05;;;1.90;;
53666;SDS011;39568;51.026;5.468;2023-04-22T12:50:17;2.25;;;2.10;;
53666;SDS011;39568;51.026;5.468;2023-04-22T12:52:49;2.83;;;1.73;;
53666;SDS011;39568;51.026;5.468;2023-04-22T12:55:15;2.85;;;2.15;;
53666;SDS011;39568;51.026;5.468;2023-04-22T12:57:46;4.40;;;1.65;;
53666;SDS011;39568;51.026;5.468;2023-04-22T13:00:17;2.90;;;2.60;;
53666;SDS011;39568;51.026;5.468;2023-04-22T13:02:54;2.72;;;1.83;;
53666;SDS011;39568;51.026;5.468;2023-04-22T13:05:21;3.15;;;2.25;;
53666;SDS011;39568;51.026;5.468;2023-04-22T13:07:49;1.55;;;1.45;;
53666;SDS011;39568;51.026;5.468;2023-04-22T13:10:16;1.77;;;1.67;;
53666;SDS011;39568;51.026;5.468;2023-04-22T13:12:47;2.28;;;1.55;;
53666;SDS011;39568;51.026;5.468;2023-04-22T13:15:13;1.90;;;1.80;;
53666;SDS011;39568;51.026;5.468;2023-04-22T13:17:42;2.05;;;1.95;;
53666;SDS011;39568;51.026;5.468;2023-04-22T13:20:09;1.63;;;1.52;;
53666;SDS011;39568;51.026;5.468;2023-04-22T13:22:38;1.90;;;1.42;;
53666;SDS011;39568;51.026;5.468;2023-04-22T13:25:07;2.17;;;1.40;;
53666;SDS011;39568;51.026;5.468;2023-04-22T13:27:35;1.23;;;1.13;;
53666;SDS011;39568;51.026;5.468;2023-04-22T13:30:08;2.08;;;1.75;;
53666;SDS011;39568;51.026;5.468;2023-04-22T13:32:35;2.95;;;1.52;;
53666;SDS011;39568;51.026;5.468;2023-04-22T13:35:02;2.50;;;2.30;;
53666;SDS011;39568;51.026;5.468;2023-04-22T13:37:31;4.97;;;1.45;;
53666;SDS011;39568;51.026;5.468;2023-04-22T13:39:57;7.22;;;2.42;;
53666;SDS011;39568;51.026;5.468;2023-04-22T13:42:25;3.30;;;3.00;;
53666;SDS011;39568;51.026;5.468;2023-04-22T13:44:54;2.50;;;2.30;;
53666;SDS011;39568;51.026;5.468;2023-04-22T13:47:21;3.45;;;2.45;;
53666;SDS011;39568;51.026;5.468;2023-04-22T13:49:47;4.22;;;3.92;;
53666;SDS011;39568;51.026;5.468;2023-04-22T13:52:17;5.55;;;3.30;;
53666;SDS011;39568;51.026;5.468;2023-04-22T13:54:44;4.03;;;3.72;;
53666;SDS011;39568;51.026;5.468;2023-04-22T13:57:11;4.60;;;4.30;;
53666;SDS011;39568;51.026;5.468;2023-04-22T13:59:41;3.83;;;3.53;;
53666;SDS011;39568;51.026;5.468;2023-04-22T14:02:08;4.00;;;3.70;;
53666;SDS011;39568;51.026;5.468;2023-04-22T14:04:36;3.00;;;2.70;;
53666;SDS011;39568;51.026;5.468;2023-04-22T14:07:03;4.57;;;3.05;;
53666;SDS011;39568;51.026;5.468;2023-04-22T14:09:34;4.40;;;2.90;;
53666;SDS011;39568;51.026;5.468;2023-04-22T14:12:02;4.45;;;3.80;;
53666;SDS011;39568;51.026;5.468;2023-04-22T14:14:29;2.88;;;2.67;;
53666;SDS011;39568;51.026;5.468;2023-04-22T14:16:59;5.43;;;3.20;;
53666;SDS011;39568;51.026;5.468;2023-04-22T14:19:26;4.35;;;3.42;;
53666;SDS011;39568;51.026;5.468;2023-04-22T14:21:54;3.67;;;3.47;;
53666;SDS011;39568;51.026;5.468;2023-04-22T14:24:21;3.45;;;3.25;;
53666;SDS011;39568;51.026;5.468;2023-04-22T14:26:49;3.55;;;3.30;;
53666;SDS011;39568;51.026;5.468;2023-04-22T14:29:16;3.33;;;2.97;;
53666;SDS011;39568;51.026;5.468;2023-04-22T14:31:43;4.00;;;3.80;;
53666;SDS011;39568;51.026;5.468;2023-04-22T14:34:15;7.67;;;3.47;;
53666;SDS011;39568;51.026;5.468;2023-04-22T14:36:41;5.97;;;4.50;;
53666;SDS011;39568;51.026;5.468;2023-04-22T14:39:08;3.92;;;3.55;;
53666;SDS011;39568;51.026;5.468;2023-04-22T14:41:35;4.70;;;3.25;;
53666;SDS011;39568;51.026;5.468;2023-04-22T14:44:04;4.68;;;4.28;;
53666;SDS011;39568;51.026;5.468;2023-04-22T14:46:31;5.85;;;4.25;;
53666;SDS011;39568;51.026;5.468;2023-04-22T14:48:58;5.93;;;4.13;;